sensor_id;sensor_type;location;lat;lon;timestamp;pressure;altitude;pressure_sealevel;temperature;humidity
9415;BME280;4746;35.664;139.738;2023-05-01T00:01:07;100014.91;;;24.77;41.36
9415;BME280;4746;35.664;139.738;2023-05-01T00:03:34;100017.63;;;24.91;41.20
9415;BME280;4746;35.664;139.738;2023-05-01T00:06:04;100013.25;;;25.07;40.91
9415;BME280;4746;35.664;139.738;2023-05-01T00:08:32;100017.69;;;25.22;40.02
9415;BME280;4746;35.664;139.738;2023-05-01T00:11:06;100023.94;;;25.35;40.53
9415;BME280;4746;35.664;139.738;2023-05-01T00:13:38;100026.97;;;25.43;40.24
9415;BME280;4746;35.664;139.738;2023-05-01T00:16:10;100025.59;;;25.51;39.79
9415;BME280;4746;35.664;139.738;2023-05-01T00:18:39;100038.13;;;25.62;39.22
9415;BME280;4746;35.664;139.738;2023-05-01T00:21:07;100028.88;;;25.70;39.01
9415;BME280;4746;35.664;139.738;2023-05-01T00:23:34;100035.63;;;25.76;38.75
9415;BME280;4746;35.664;139.738;2023-05-01T00:26:02;100030.84;;;25.82;38.74
9415;BME280;4746;35.664;139.738;2023-05-01T00:28:29;100034.91;;;25.88;38.04
9415;BME280;4746;35.664;139.738;2023-05-01T00:30:57;100021.50;;;25.92;38.03
9415;BME280;4746;35.664;139.738;2023-05-01T00:33:25;100026.47;;;25.96;37.78
9415;BME280;4746;35.664;139.738;2023-05-01T00:35:52;100028.94;;;25.99;37.48
9415;BME280;4746;35.664;139.738;2023-05-01T00:38:21;100019.28;;;26.00;37.21
9415;BME280;4746;35.664;139.738;2023-05-01T00:40:49;100027.06;;;26.01;36.97
9415;BME280;4746;35.664;139.738;2023-05-01T00:43:17;100019.19;;;26.01;37.12
9415;BME280;4746;35.664;139.738;2023-05-01T00:45:45;100020.22;;;25.99;36.97
9415;BME280;4746;35.664;139.738;2023-05-01T00:48:14;100014.94;;;25.99;36.47
9415;BME280;4746;35.664;139.738;2023-05-01T00:50:43;100023.34;;;26.05;37.02
9415;BME280;4746;35.664;139.738;2023-05-01T00:53:11;100021.44;;;26.07;36.44
9415;BME280;4746;35.664;139.738;2023-05-01T00:55:41;100020.50;;;26.08;36.61
9415;BME280;4746;35.664;139.738;2023-05-01T00:58:10;100011.69;;;26.09;35.91
9415;BME280;4746;35.664;139.738;2023-05-01T01:00:39;100024.63;;;26.12;36.15
9415;BME280;4746;35.664;139.738;2023-05-01T01:03:06;100024.22;;;26.20;36.23
9415;BME280;4746;35.664;139.738;2023-05-01T01:05:42;100030.50;;;26.31;35.98
9415;BME280;4746;35.664;139.738;2023-05-01T01:08:53;100030.66;;;26.44;36.04
9415;BME280;4746;35.664;139.738;2023-05-01T01:11:47;100020.78;;;26.47;36.51
9415;BME280;4746;35.664;139.738;2023-05-01T01:14:38;100018.56;;;26.55;36.57
9415;BME280;4746;35.664;139.738;2023-05-01T01:20:45;100014.03;;;26.85;36.47
9415;BME280;4746;35.664;139.738;2023-05-01T01:35:25;100001.78;;;27.26;35.26
9415;BME280;4746;35.664;139.738;2023-05-01T01:38:05;99999.84;;;27.41;34.93
9415;BME280;4746;35.664;139.738;2023-05-01T01:41:04;99996.59;;;27.64;34.54
9415;BME280;4746;35.664;139.738;2023-05-01T01:43:46;99994.84;;;27.77;34.70
9415;BME280;4746;35.664;139.738;2023-05-01T01:46:17;99991.28;;;27.78;33.99
9415;BME280;4746;35.664;139.738;2023-05-01T01:48:49;99987.72;;;27.92;33.66
9415;BME280;4746;35.664;139.738;2023-05-01T01:51:22;99993.97;;;28.03;32.87
9415;BME280;4746;35.664;139.738;2023-05-01T01:53:57;99989.38;;;28.19;32.60
9415;BME280;4746;35.664;139.738;2023-05-01T01:56:28;99993.28;;;28.26;32.25
9415;BME280;4746;35.664;139.738;2023-05-01T01:59:02;99991.69;;;28.36;32.12
9415;BME280;4746;35.664;139.738;2023-05-01T02:01:33;99994.22;;;28.50;32.00
9415;BME280;4746;35.664;139.738;2023-05-01T02:04:03;99989.06;;;28.61;32.07
9415;BME280;4746;35.664;139.738;2023-05-01T02:06:34;99996.84;;;28.75;31.66
9415;BME280;4746;35.664;139.738;2023-05-01T02:09:04;99992.00;;;28.81;31.62
9415;BME280;4746;35.664;139.738;2023-05-01T02:11:35;99994.97;;;28.77;31.16
9415;BME280;4746;35.664;139.738;2023-05-01T02:14:05;99995.16;;;28.86;30.71
9415;BME280;4746;35.664;139.738;2023-05-01T02:16:35;100004.97;;;28.96;30.75
9415;BME280;4746;35.664;139.738;2023-05-01T02:19:05;99993.75;;;29.05;30.54
9415;BME280;4746;35.664;139.738;2023-05-01T02:21:34;99991.47;;;29.24;30.49
9415;BME280;4746;35.664;139.738;2023-05-01T02:24:05;99979.22;;;29.36;30.34
9415;BME280;4746;35.664;139.738;2023-05-01T02:26:41;99987.31;;;29.45;29.65
9415;BME280;4746;35.664;139.738;2023-05-01T02:29:10;99977.69;;;29.44;29.59
9415;BME280;4746;35.664;139.738;2023-05-01T02:31:38;99977.09;;;29.41;29.37
9415;BME280;4746;35.664;139.738;2023-05-01T02:34:05;99980.22;;;29.46;29.38
9415;BME280;4746;35.664;139.738;2023-05-01T02:36:33;99983.25;;;29.52;29.20
9415;BME280;4746;35.664;139.738;2023-05-01T02:39:01;99987.97;;;29.59;29.03
9415;BME280;4746;35.664;139.738;2023-05-01T02:41:31;99975.47;;;29.61;29.04
9415;BME280;4746;35.664;139.738;2023-05-01T02:44:05;99973.00;;;29.71;29.09
9415;BME280;4746;35.664;139.738;2023-05-01T02:46:36;99966.66;;;29.73;28.40
9415;BME280;4746;35.664;139.738;2023-05-01T02:49:06;99967.72;;;29.71;28.56
9415;BME280;4746;35.664;139.738;2023-05-01T02:51:35;99970.66;;;29.79;28.14
9415;BME280;4746;35.664;139.738;2023-05-01T02:54:04;99961.84;;;29.78;28.24
9415;BME280;4746;35.664;139.738;2023-05-01T02:56:32;99961.66;;;29.81;28.12
9415;BME280;4746;35.664;139.738;2023-05-01T02:59:00;99950.22;;;29.81;27.83
9415;BME280;4746;35.664;139.738;2023-05-01T03:01:27;99951.91;;;29.82;27.39
9415;BME280;4746;35.664;139.738;2023-05-01T03:03:56;99957.91;;;29.73;27.04
9415;BME280;4746;35.664;139.738;2023-05-01T03:06:24;99944.41;;;29.65;27.38
9415;BME280;4746;35.664;139.738;2023-05-01T03:08:56;99950.84;;;29.50;27.17
9415;BME280;4746;35.664;139.738;2023-05-01T03:11:23;99951.75;;;29.38;27.21
9415;BME280;4746;35.664;139.738;2023-05-01T03:13:51;99953.44;;;29.27;27.42
9415;BME280;4746;35.664;139.738;2023-05-01T03:16:18;99943.66;;;29.16;27.47
9415;BME280;4746;35.664;139.738;2023-05-01T03:18:46;99944.78;;;29.01;27.54
9415;BME280;4746;35.664;139.738;2023-05-01T03:21:14;99931.63;;;28.89;27.93
9415;BME280;4746;35.664;139.738;2023-05-01T03:23:41;99930.25;;;28.83;27.59
9415;BME280;4746;35.664;139.738;2023-05-01T03:26:09;99909.66;;;28.88;28.39
9415;BME280;4746;35.664;139.738;2023-05-01T03:28:36;99901.69;;;28.78;28.08
9415;BME280;4746;35.664;139.738;2023-05-01T03:31:04;99896.94;;;28.70;28.68
9415;BME280;4746;35.664;139.738;2023-05-01T03:33:31;99909.25;;;28.70;28.67
9415;BME280;4746;35.664;139.738;2023-05-01T03:36:01;99901.69;;;28.78;28.94
9415;BME280;4746;35.664;139.738;2023-05-01T03:38:32;99897.41;;;28.87;28.75
9415;BME280;4746;35.664;139.738;2023-05-01T03:41:00;99900.34;;;28.95;28.81
9415;BME280;4746;35.664;139.738;2023-05-01T03:43:27;99889.56;;;28.98;28.62
9415;BME280;4746;35.664;139.738;2023-05-01T03:45:55;99892.94;;;29.00;29.25
9415;BME280;4746;35.664;139.738;2023-05-01T03:48:23;99890.59;;;29.08;28.96
9415;BME280;4746;35.664;139.738;2023-05-01T03:50:51;99886.78;;;29.12;28.88
9415;BME280;4746;35.664;139.738;2023-05-01T03:53:19;99880.84;;;29.21;29.05
9415;BME280;4746;35.664;139.738;2023-05-01T03:55:46;99879.94;;;29.33;28.55
9415;BME280;4746;35.664;139.738;2023-05-01T03:58:14;99879.38;;;29.41;28.65
9415;BME280;4746;35.664;139.738;2023-05-01T04:00:42;99878.34;;;29.54;28.59
9415;BME280;4746;35.664;139.738;2023-05-01T04:03:09;99870.09;;;29.69;28.16
9415;BME280;4746;35.664;139.738;2023-05-01T04:05:37;99869.50;;;29.77;28.37
9415;BME280;4746;35.664;139.738;2023-05-01T04:08:04;99869.81;;;29.96;28.35
9415;BME280;4746;35.664;139.738;2023-05-01T04:10:32;99874.97;;;30.08;28.15
9415;BME280;4746;35.664;139.738;2023-05-01T04:12:59;99858.75;;;30.24;27.50
9415;BME280;4746;35.664;139.738;2023-05-01T04:15:27;99855.88;;;30.37;27.43
9415;BME280;4746;35.664;139.738;2023-05-01T04:17:55;99865.03;;;30.55;27.48
9415;BME280;4746;35.664;139.738;2023-05-01T04:20:22;99875.22;;;30.71;27.38
9415;BME280;4746;35.664;139.738;2023-05-01T04:22:50;99873.72;;;30.89;26.89
9415;BME280;4746;35.664;139.738;2023-05-01T04:25:17;99855.69;;;31.04;27.08
9415;BME280;4746;35.664;139.738;2023-05-01T04:27:45;99860.75;;;31.28;26.42
9415;BME280;4746;35.664;139.738;2023-05-01T04:30:12;99854.50;;;31.49;25.92
9415;BME280;4746;35.664;139.738;2023-05-01T04:32:40;99849.22;;;31.70;25.75
9415;BME280;4746;35.664;139.738;2023-05-01T04:35:08;99849.66;;;31.95;25.89
9415;BME280;4746;35.664;139.738;2023-05-01T04:37:36;99853.97;;;32.16;25.46
9415;BME280;4746;35.664;139.738;2023-05-01T04:40:04;99835.75;;;32.32;25.27
9415;BME280;4746;35.664;139.738;2023-05-01T04:42:32;99828.94;;;32.39;25.06
9415;BME280;4746;35.664;139.738;2023-05-01T04:44:59;99832.72;;;32.46;25.13
9415;BME280;4746;35.664;139.738;2023-05-01T04:47:30;99847.28;;;32.51;24.76
9415;BME280;4746;35.664;139.738;2023-05-01T04:49:57;99830.00;;;32.66;25.00
9415;BME280;4746;35.664;139.738;2023-05-01T04:52:24;99827.25;;;32.87;24.82
9415;BME280;4746;35.664;139.738;2023-05-01T04:54:52;99822.66;;;33.08;24.49
9415;BME280;4746;35.664;139.738;2023-05-01T04:57:20;99810.34;;;33.25;24.46
9415;BME280;4746;35.664;139.738;2023-05-01T04:59:47;99808.53;;;33.45;24.17
9415;BME280;4746;35.664;139.738;2023-05-01T05:02:15;99810.47;;;33.71;23.91
9415;BME280;4746;35.664;139.738;2023-05-01T05:04:42;99789.66;;;33.93;23.77
9415;BME280;4746;35.664;139.738;2023-05-01T05:07:10;99791.34;;;34.04;23.63
9415;BME280;4746;35.664;139.738;2023-05-01T05:09:37;99798.03;;;34.08;23.68
9415;BME280;4746;35.664;139.738;2023-05-01T05:12:05;99798.09;;;34.25;23.61
9415;BME280;4746;35.664;139.738;2023-05-01T05:14:33;99780.63;;;34.40;23.10
9415;BME280;4746;35.664;139.738;2023-05-01T05:17:00;99787.59;;;34.51;23.64
9415;BME280;4746;35.664;139.738;2023-05-01T05:19:28;99789.38;;;34.60;23.40
9415;BME280;4746;35.664;139.738;2023-05-01T05:21:55;99791.84;;;34.70;22.76
9415;BME280;4746;35.664;139.738;2023-05-01T05:24:23;99787.41;;;34.96;22.60
9415;BME280;4746;35.664;139.738;2023-05-01T05:26:51;99789.19;;;35.65;22.02
9415;BME280;4746;35.664;139.738;2023-05-01T05:29:21;99789.97;;;36.42;21.81
9415;BME280;4746;35.664;139.738;2023-05-01T05:31:49;99781.25;;;36.97;21.20
9415;BME280;4746;35.664;139.738;2023-05-01T05:34:16;99768.91;;;37.36;20.66
9415;BME280;4746;35.664;139.738;2023-05-01T05:36:45;99761.47;;;37.69;20.37
9415;BME280;4746;35.664;139.738;2023-05-01T05:39:12;99751.41;;;37.95;20.29
9415;BME280;4746;35.664;139.738;2023-05-01T05:41:40;99759.00;;;38.22;20.20
9415;BME280;4746;35.664;139.738;2023-05-01T05:44:07;99760.38;;;38.48;19.53
9415;BME280;4746;35.664;139.738;2023-05-01T05:46:35;99761.16;;;38.65;19.76
9415;BME280;4746;35.664;139.738;2023-05-01T05:49:02;99751.63;;;38.85;20.01
9415;BME280;4746;35.664;139.738;2023-05-01T05:51:30;99751.25;;;38.88;19.85
9415;BME280;4746;35.664;139.738;2023-05-01T05:53:57;99747.81;;;38.79;19.40
9415;BME280;4746;35.664;139.738;2023-05-01T05:56:25;99749.31;;;38.51;19.58
9415;BME280;4746;35.664;139.738;2023-05-01T05:58:54;99744.44;;;38.55;19.90
9415;BME280;4746;35.664;139.738;2023-05-01T06:01:21;99746.44;;;39.93;18.34
9415;BME280;4746;35.664;139.738;2023-05-01T06:03:49;99747.84;;;41.58;17.22
9415;BME280;4746;35.664;139.738;2023-05-01T06:06:16;99745.31;;;42.77;16.39
9415;BME280;4746;35.664;139.738;2023-05-01T06:08:44;99740.16;;;43.40;15.97
9415;BME280;4746;35.664;139.738;2023-05-01T06:11:12;99746.47;;;44.16;15.27
9415;BME280;4746;35.664;139.738;2023-05-01T06:13:39;99738.19;;;44.62;14.85
9415;BME280;4746;35.664;139.738;2023-05-01T06:16:07;99727.38;;;45.17;14.91
9415;BME280;4746;35.664;139.738;2023-05-01T06:18:34;99738.19;;;44.62;15.01
9415;BME280;4746;35.664;139.738;2023-05-01T06:21:02;99738.19;;;42.57;15.97
9415;BME280;4746;35.664;139.738;2023-05-01T06:23:29;99740.41;;;40.70;17.16
9415;BME280;4746;35.664;139.738;2023-05-01T06:25:59;99734.38;;;39.09;18.65
9415;BME280;4746;35.664;139.738;2023-05-01T06:28:28;99726.50;;;37.87;20.03
9415;BME280;4746;35.664;139.738;2023-05-01T06:30:55;99731.66;;;36.94;20.52
9415;BME280;4746;35.664;139.738;2023-05-01T06:33:23;99728.09;;;36.62;20.77
9415;BME280;4746;35.664;139.738;2023-05-01T06:35:50;99727.78;;;37.37;20.77
9415;BME280;4746;35.664;139.738;2023-05-01T06:38:18;99724.06;;;37.53;20.16
9415;BME280;4746;35.664;139.738;2023-05-01T06:40:48;99714.44;;;38.29;20.78
9415;BME280;4746;35.664;139.738;2023-05-01T06:43:15;99730.50;;;39.92;19.00
9415;BME280;4746;35.664;139.738;2023-05-01T06:45:43;99724.03;;;39.21;19.93
9415;BME280;4746;35.664;139.738;2023-05-01T06:48:10;99713.38;;;39.13;19.89
9415;BME280;4746;35.664;139.738;2023-05-01T06:50:38;99740.38;;;39.11;20.13
9415;BME280;4746;35.664;139.738;2023-05-01T06:53:08;99740.06;;;37.85;20.91
9415;BME280;4746;35.664;139.738;2023-05-01T06:55:35;99741.22;;;35.99;22.80
9415;BME280;4746;35.664;139.738;2023-05-01T06:58:03;99748.47;;;34.51;23.76
9415;BME280;4746;35.664;139.738;2023-05-01T07:00:33;99725.88;;;33.29;25.60
9415;BME280;4746;35.664;139.738;2023-05-01T07:03:00;99741.38;;;32.39;26.70
9415;BME280;4746;35.664;139.738;2023-05-01T07:05:29;99729.44;;;31.75;27.89
9415;BME280;4746;35.664;139.738;2023-05-01T07:07:57;99733.00;;;31.45;28.50
9415;BME280;4746;35.664;139.738;2023-05-01T07:10:26;99735.56;;;31.46;28.63
9415;BME280;4746;35.664;139.738;2023-05-01T07:12:54;99726.81;;;31.55;28.68
9415;BME280;4746;35.664;139.738;2023-05-01T07:15:22;99714.81;;;31.31;29.02
9415;BME280;4746;35.664;139.738;2023-05-01T07:17:54;99723.50;;;31.63;29.10
9415;BME280;4746;35.664;139.738;2023-05-01T07:20:25;99711.59;;;32.17;28.26
9415;BME280;4746;35.664;139.738;2023-05-01T07:22:53;99729.44;;;32.05;27.99
9415;BME280;4746;35.664;139.738;2023-05-01T07:25:21;99707.38;;;32.14;27.85
9415;BME280;4746;35.664;139.738;2023-05-01T07:27:48;99722.81;;;31.90;28.07
9415;BME280;4746;35.664;139.738;2023-05-01T07:30:19;99742.63;;;31.46;27.86
9415;BME280;4746;35.664;139.738;2023-05-01T07:32:47;99740.47;;;30.79;28.59
9415;BME280;4746;35.664;139.738;2023-05-01T07:35:18;99739.97;;;30.53;29.16
9415;BME280;4746;35.664;139.738;2023-05-01T07:37:50;99726.28;;;30.48;29.02
9415;BME280;4746;35.664;139.738;2023-05-01T07:40:18;99736.72;;;31.12;28.86
9415;BME280;4746;35.664;139.738;2023-05-01T07:42:46;99731.69;;;31.09;28.76
9415;BME280;4746;35.664;139.738;2023-05-01T07:45:15;99719.97;;;32.12;27.88
9415;BME280;4746;35.664;139.738;2023-05-01T07:47:43;99721.88;;;33.16;26.87
9415;BME280;4746;35.664;139.738;2023-05-01T07:50:14;99732.41;;;33.99;25.85
9415;BME280;4746;35.664;139.738;2023-05-01T07:52:42;99725.63;;;35.10;24.41
9415;BME280;4746;35.664;139.738;2023-05-01T07:55:10;99731.81;;;36.20;23.58
9415;BME280;4746;35.664;139.738;2023-05-01T07:57:38;99729.47;;;37.38;22.19
9415;BME280;4746;35.664;139.738;2023-05-01T08:00:06;99735.94;;;38.21;21.30
9415;BME280;4746;35.664;139.738;2023-05-01T08:02:34;99725.63;;;38.02;20.87
9415;BME280;4746;35.664;139.738;2023-05-01T08:05:01;99727.69;;;38.61;20.16
9415;BME280;4746;35.664;139.738;2023-05-01T08:07:32;99723.53;;;38.95;20.16
9415;BME280;4746;35.664;139.738;2023-05-01T08:10:00;99735.91;;;38.59;19.87
9415;BME280;4746;35.664;139.738;2023-05-01T08:12:34;99728.50;;;38.31;20.64
9415;BME280;4746;35.664;139.738;2023-05-01T08:15:02;99735.75;;;38.23;20.58
9415;BME280;4746;35.664;139.738;2023-05-01T08:17:29;99756.56;;;38.05;20.85
9415;BME280;4746;35.664;139.738;2023-05-01T08:19:57;99751.50;;;37.48;21.13
9415;BME280;4746;35.664;139.738;2023-05-01T08:22:25;99729.78;;;37.19;21.87
9415;BME280;4746;35.664;139.738;2023-05-01T08:24:52;99730.97;;;37.48;21.54
9415;BME280;4746;35.664;139.738;2023-05-01T08:27:20;99733.06;;;37.84;21.22
9415;BME280;4746;35.664;139.738;2023-05-01T08:29:48;99742.38;;;37.96;21.35
9415;BME280;4746;35.664;139.738;2023-05-01T08:32:16;99742.88;;;38.00;21.49
9415;BME280;4746;35.664;139.738;2023-05-01T08:34:44;99747.03;;;38.02;21.72
9415;BME280;4746;35.664;139.738;2023-05-01T08:37:12;99750.19;;;37.44;21.70
9415;BME280;4746;35.664;139.738;2023-05-01T08:39:40;99756.78;;;36.60;23.06
9415;BME280;4746;35.664;139.738;2023-05-01T08:42:08;99747.22;;;35.67;24.31
9415;BME280;4746;35.664;139.738;2023-05-01T08:44:38;99746.31;;;35.16;24.53
9415;BME280;4746;35.664;139.738;2023-05-01T08:47:26;99749.41;;;33.79;26.48
9415;BME280;4746;35.664;139.738;2023-05-01T08:49:58;99753.84;;;32.67;27.93
9415;BME280;4746;35.664;139.738;2023-05-01T08:52:28;99753.72;;;31.80;29.15
9415;BME280;4746;35.664;139.738;2023-05-01T08:55:00;99746.59;;;31.10;30.04
9415;BME280;4746;35.664;139.738;2023-05-01T08:57:31;99745.03;;;30.45;31.46
9415;BME280;4746;35.664;139.738;2023-05-01T09:00:00;99763.47;;;29.92;32.03
9415;BME280;4746;35.664;139.738;2023-05-01T09:02:33;99759.94;;;29.37;33.05
9415;BME280;4746;35.664;139.738;2023-05-01T09:05:05;99767.69;;;28.93;33.65
9415;BME280;4746;35.664;139.738;2023-05-01T09:07:34;99787.03;;;28.58;34.52
9415;BME280;4746;35.664;139.738;2023-05-01T09:10:01;99786.44;;;28.07;35.41
9415;BME280;4746;35.664;139.738;2023-05-01T09:12:29;99770.00;;;27.53;36.59
9415;BME280;4746;35.664;139.738;2023-05-01T09:15:05;99779.84;;;27.13;37.02
9415;BME280;4746;35.664;139.738;2023-05-01T09:17:34;99787.34;;;26.80;37.92
9415;BME280;4746;35.664;139.738;2023-05-01T09:20:04;99775.63;;;26.45;38.79
9415;BME280;4746;35.664;139.738;2023-05-01T09:22:34;99793.09;;;26.18;39.43
9415;BME280;4746;35.664;139.738;2023-05-01T09:25:02;99776.22;;;26.08;40.32
9415;BME280;4746;35.664;139.738;2023-05-01T09:27:35;99771.56;;;25.99;40.30
9415;BME280;4746;35.664;139.738;2023-05-01T09:30:04;99778.34;;;25.76;41.16
9415;BME280;4746;35.664;139.738;2023-05-01T09:32:32;99781.13;;;25.59;41.60
9415;BME280;4746;35.664;139.738;2023-05-01T09:35:14;99787.94;;;25.47;41.71
9415;BME280;4746;35.664;139.738;2023-05-01T09:37:49;99781.41;;;25.25;42.56
9415;BME280;4746;35.664;139.738;2023-05-01T09:40:19;99770.16;;;25.09;43.14
9415;BME280;4746;35.664;139.738;2023-05-01T09:42:53;99762.03;;;24.98;43.69
9415;BME280;4746;35.664;139.738;2023-05-01T09:45:25;99758.84;;;24.93;43.73
9415;BME280;4746;35.664;139.738;2023-05-01T09:48:08;99778.22;;;24.91;43.76
9415;BME280;4746;35.664;139.738;2023-05-01T09:50:38;99776.41;;;24.77;44.59
9415;BME280;4746;35.664;139.738;2023-05-01T09:53:08;99780.53;;;24.66;45.14
9415;BME280;4746;35.664;139.738;2023-05-01T09:55:36;99769.75;;;24.56;45.32
9415;BME280;4746;35.664;139.738;2023-05-01T09:58:04;99784.28;;;24.47;45.42
9415;BME280;4746;35.664;139.738;2023-05-01T10:00:47;99794.94;;;24.44;45.57
9415;BME280;4746;35.664;139.738;2023-05-01T10:03:15;99799.97;;;24.31;46.26
9415;BME280;4746;35.664;139.738;2023-05-01T10:05:43;99815.19;;;24.25;46.41
9415;BME280;4746;35.664;139.738;2023-05-01T10:08:11;99811.44;;;24.13;46.77
9415;BME280;4746;35.664;139.738;2023-05-01T10:10:42;99801.22;;;24.09;46.81
9415;BME280;4746;35.664;139.738;2023-05-01T10:13:16;99790.06;;;24.05;47.35
9415;BME280;4746;35.664;139.738;2023-05-01T10:15:47;99804.34;;;24.00;47.21
9415;BME280;4746;35.664;139.738;2023-05-01T10:18:17;99796.81;;;23.94;47.90
9415;BME280;4746;35.664;139.738;2023-05-01T10:20:46;99808.63;;;23.85;47.76
9415;BME280;4746;35.664;139.738;2023-05-01T10:23:14;99820.56;;;23.74;48.69
9415;BME280;4746;35.664;139.738;2023-05-01T10:25:45;99802.72;;;23.65;48.97
9415;BME280;4746;35.664;139.738;2023-05-01T10:28:14;99802.13;;;23.60;49.38
9415;BME280;4746;35.664;139.738;2023-05-01T10:30:44;99803.88;;;23.60;49.13
9415;BME280;4746;35.664;139.738;2023-05-01T10:33:14;99821.44;;;23.58;49.40
9415;BME280;4746;35.664;139.738;2023-05-01T10:35:49;99825.66;;;23.60;49.11
9415;BME280;4746;35.664;139.738;2023-05-01T10:38:32;99849.22;;;23.60;49.40
9415;BME280;4746;35.664;139.738;2023-05-01T10:41:01;99854.66;;;23.56;49.83
9415;BME280;4746;35.664;139.738;2023-05-01T10:43:31;99865.97;;;23.56;49.56
9415;BME280;4746;35.664;139.738;2023-05-01T10:51:25;99895.97;;;23.49;50.08
9415;BME280;4746;35.664;139.738;2023-05-01T10:56:43;99899.53;;;23.48;50.27
9415;BME280;4746;35.664;139.738;2023-05-01T10:59:10;99911.22;;;23.41;50.44
9415;BME280;4746;35.664;139.738;2023-05-01T11:01:47;99924.13;;;23.44;50.66
9415;BME280;4746;35.664;139.738;2023-05-01T11:07:13;99947.00;;;23.58;50.50
9415;BME280;4746;35.664;139.738;2023-05-01T11:17:53;99961.13;;;23.89;50.31
9415;BME280;4746;35.664;139.738;2023-05-01T11:22:54;99970.19;;;23.99;49.74
9415;BME280;4746;35.664;139.738;2023-05-01T11:25:27;99968.28;;;24.02;50.00
9415;BME280;4746;35.664;139.738;2023-05-01T11:28:03;99969.72;;;24.08;49.85
9415;BME280;4746;35.664;139.738;2023-05-01T11:30:41;99980.03;;;24.11;49.75
9415;BME280;4746;35.664;139.738;2023-05-01T11:33:09;99981.03;;;24.08;49.88
9415;BME280;4746;35.664;139.738;2023-05-01T11:35:37;99992.31;;;24.10;49.43
9415;BME280;4746;35.664;139.738;2023-05-01T11:38:05;99986.28;;;24.08;49.92
9415;BME280;4746;35.664;139.738;2023-05-01T11:40:34;99995.75;;;24.11;49.63
9415;BME280;4746;35.664;139.738;2023-05-01T11:43:07;99992.22;;;24.12;49.84
9415;BME280;4746;35.664;139.738;2023-05-01T11:45:36;100001.00;;;24.11;49.83
9415;BME280;4746;35.664;139.738;2023-05-01T11:48:04;100004.44;;;24.11;49.57
9415;BME280;4746;35.664;139.738;2023-05-01T11:50:41;99998.50;;;24.08;49.53
9415;BME280;4746;35.664;139.738;2023-05-01T11:53:13;100001.00;;;24.11;49.73
9415;BME280;4746;35.664;139.738;2023-05-01T11:55:41;100010.06;;;24.04;49.60
9415;BME280;4746;35.664;139.738;2023-05-01T11:58:09;100021.63;;;24.00;49.85
9415;BME280;4746;35.664;139.738;2023-05-01T12:00:41;100053.78;;;24.02;47.82
9415;BME280;4746;35.664;139.738;2023-05-01T12:03:12;100031.97;;;23.68;46.85
9415;BME280;4746;35.664;139.738;2023-05-01T12:05:43;100038.91;;;23.50;46.19
9415;BME280;4746;35.664;139.738;2023-05-01T12:08:15;100067.66;;;23.33;46.30
9415;BME280;4746;35.664;139.738;2023-05-01T12:10:53;100071.91;;;23.17;45.82
9415;BME280;4746;35.664;139.738;2023-05-01T12:13:25;100063.72;;;22.87;46.45
9415;BME280;4746;35.664;139.738;2023-05-01T12:15:55;100087.28;;;22.67;46.54
9415;BME280;4746;35.664;139.738;2023-05-01T12:18:23;100123.28;;;22.40;47.14
9415;BME280;4746;35.664;139.738;2023-05-01T12:20:53;100098.34;;;22.12;48.23
9415;BME280;4746;35.664;139.738;2023-05-01T12:23:34;100110.56;;;21.90;48.52
9415;BME280;4746;35.664;139.738;2023-05-01T12:26:22;100123.69;;;21.67;48.99
9415;BME280;4746;35.664;139.738;2023-05-01T12:29:06;100109.69;;;21.47;49.13
9415;BME280;4746;35.664;139.738;2023-05-01T12:31:46;100118.13;;;21.31;49.65
9415;BME280;4746;35.664;139.738;2023-05-01T12:34:15;100135.25;;;21.15;50.21
9415;BME280;4746;35.664;139.738;2023-05-01T12:36:53;100151.13;;;21.09;50.24
9415;BME280;4746;35.664;139.738;2023-05-01T12:39:21;100155.00;;;20.97;50.73
9415;BME280;4746;35.664;139.738;2023-05-01T12:41:51;100169.28;;;20.86;50.88
9415;BME280;4746;35.664;139.738;2023-05-01T12:44:22;100164.41;;;20.77;51.06
9415;BME280;4746;35.664;139.738;2023-05-01T12:47:01;100167.19;;;20.71;51.22
9415;BME280;4746;35.664;139.738;2023-05-01T12:49:30;100176.13;;;20.64;51.34
9415;BME280;4746;35.664;139.738;2023-05-01T12:52:02;100192.34;;;20.72;50.96
9415;BME280;4746;35.664;139.738;2023-05-01T12:54:32;100190.16;;;20.60;51.44
9415;BME280;4746;35.664;139.738;2023-05-01T12:57:10;100186.66;;;20.61;51.26
9415;BME280;4746;35.664;139.738;2023-05-01T12:59:43;100192.97;;;20.54;51.25
9415;BME280;4746;35.664;139.738;2023-05-01T13:02:13;100185.25;;;20.51;51.22
9415;BME280;4746;35.664;139.738;2023-05-01T13:04:43;100195.09;;;20.43;51.16
9415;BME280;4746;35.664;139.738;2023-05-01T13:07:14;100190.84;;;20.39;51.20
9415;BME280;4746;35.664;139.738;2023-05-01T13:09:59;100185.88;;;20.33;51.06
9415;BME280;4746;35.664;139.738;2023-05-01T13:12:27;100183.63;;;20.23;51.06
9415;BME280;4746;35.664;139.738;2023-05-01T13:14:57;100198.38;;;20.23;51.29
9415;BME280;4746;35.664;139.738;2023-05-01T13:17:30;100204.44;;;20.23;50.85
9415;BME280;4746;35.664;139.738;2023-05-01T13:20:03;100212.31;;;20.20;51.30
9415;BME280;4746;35.664;139.738;2023-05-01T13:22:35;100203.63;;;20.21;51.28
9415;BME280;4746;35.664;139.738;2023-05-01T13:25:14;100213.13;;;20.22;51.00
9415;BME280;4746;35.664;139.738;2023-05-01T13:27:49;100221.84;;;20.21;51.15
9415;BME280;4746;35.664;139.738;2023-05-01T13:30:30;100220.06;;;20.23;51.00
9415;BME280;4746;35.664;139.738;2023-05-01T13:32:59;100225.38;;;20.19;51.19
9415;BME280;4746;35.664;139.738;2023-05-01T13:35:27;100210.59;;;20.21;51.40
9415;BME280;4746;35.664;139.738;2023-05-01T13:37:55;100214.84;;;20.23;50.56
9415;BME280;4746;35.664;139.738;2023-05-01T13:40:25;100224.38;;;20.23;50.47
9415;BME280;4746;35.664;139.738;2023-05-01T13:42:53;100222.50;;;20.27;50.03
9415;BME280;4746;35.664;139.738;2023-05-01T13:45:21;100234.03;;;20.19;50.47
9415;BME280;4746;35.664;139.738;2023-05-01T13:47:50;100233.13;;;20.20;50.19
9415;BME280;4746;35.664;139.738;2023-05-01T13:50:17;100244.41;;;20.21;50.05